createdAt,value
2023-01-20T00:01:41.201Z,-2.27
2023-01-20T00:04:09.463Z,-2.03
2023-01-20T00:06:37.797Z,-2.09
2023-01-20T00:09:07.388Z,-2.17
2023-01-20T00:11:35.741Z,-2.21
2023-01-20T00:14:04.860Z,-2.30
2023-01-20T00:16:33.717Z,-2.38
2023-01-20T00:19:03.741Z,-2.58
2023-01-20T00:21:32.185Z,-2.53
2023-01-20T00:24:01.065Z,-2.57
2023-01-20T00:26:29.368Z,-2.61
2023-01-20T00:28:58.952Z,-2.63
2023-01-20T00:31:29.144Z,-2.69
2023-01-20T00:33:59.330Z,-2.74
2023-01-20T00:36:32.486Z,-2.77
2023-01-20T00:39:02.076Z,-2.80
2023-01-20T00:41:30.584Z,-2.79
2023-01-20T00:43:58.999Z,-2.93
2023-01-20T00:46:27.403Z,-2.77
2023-01-20T00:48:55.811Z,-2.62
2023-01-20T00:51:24.184Z,-2.57
2023-01-20T00:53:53.968Z,-2.50
2023-01-20T00:56:22.282Z,-2.45
2023-01-20T00:58:50.654Z,-2.41
2023-01-20T01:01:19.181Z,-2.45
2023-01-20T01:03:47.535Z,-2.33
2023-01-20T01:06:19.872Z,-2.14
2023-01-20T01:08:48.326Z,-2.09
2023-01-20T01:11:18.141Z,-2.03
2023-01-20T01:13:46.458Z,-1.98
2023-01-20T01:16:16.652Z,-1.91
2023-01-20T01:18:45.343Z,-1.86
2023-01-20T01:21:16.641Z,-1.87
2023-01-20T01:23:45.830Z,-1.84
2023-01-20T01:26:14.781Z,-1.88
2023-01-20T01:28:47.407Z,-1.78
2023-01-20T01:31:16.100Z,-1.77
2023-01-20T01:33:44.496Z,-2.00
2023-01-20T01:36:16.137Z,-1.85
2023-01-20T01:38:44.999Z,-1.88
2023-01-20T01:41:26.254Z,-1.86
2023-01-20T01:44:05.153Z,-1.83
2023-01-20T01:46:33.609Z,-1.86
2023-01-20T01:49:06.098Z,-2.10
2023-01-20T01:51:38.859Z,-1.85
2023-01-20T01:54:11.019Z,-1.90
2023-01-20T01:56:42.750Z,-1.96
2023-01-20T01:59:16.592Z,-1.99
2023-01-20T02:01:48.274Z,-2.00
2023-01-20T02:04:21.141Z,-1.98
2023-01-20T02:06:52.761Z,-2.10
2023-01-20T02:09:21.609Z,-2.02
2023-01-20T02:11:54.673Z,-2.27
2023-01-20T02:14:28.601Z,-1.99
2023-01-20T02:17:04.593Z,-2.22
2023-01-20T02:20:15.549Z,-1.92
2023-01-20T02:22:53.544Z,-1.89
2023-01-20T02:25:40.550Z,-2.09
2023-01-20T02:28:30.277Z,-1.88
2023-01-20T02:31:37.411Z,-1.85
2023-01-20T02:34:17.011Z,-1.84
2023-01-20T02:36:49.475Z,-1.86
2023-01-20T02:39:26.915Z,-1.76
2023-01-20T02:41:59.821Z,-2.01
2023-01-20T02:44:37.336Z,-1.76
2023-01-20T02:47:13.812Z,-1.74
2023-01-20T02:49:51.464Z,-1.88
2023-01-20T02:52:23.987Z,-1.66
2023-01-20T02:54:56.367Z,-1.67
2023-01-20T02:57:30.749Z,-1.66
2023-01-20T03:00:05.542Z,-1.93
2023-01-20T03:02:37.533Z,-1.70
2023-01-20T03:05:11.113Z,-1.63
2023-01-20T03:07:41.400Z,-1.77
2023-01-20T03:10:15.151Z,-1.77
2023-01-20T03:12:48.152Z,-1.67
2023-01-20T03:15:17.542Z,-1.65
2023-01-20T03:17:46.053Z,-1.63
2023-01-20T03:20:16.111Z,-1.60
2023-01-20T03:22:45.147Z,-1.55
2023-01-20T03:25:16.124Z,-1.54
2023-01-20T03:27:44.590Z,-1.52
2023-01-20T03:30:15.561Z,-1.48
2023-01-20T03:32:46.375Z,-1.44
2023-01-20T03:35:17.785Z,-1.48
2023-01-20T03:37:47.136Z,-1.39
2023-01-20T03:40:17.346Z,-1.35
2023-01-20T03:42:58.654Z,-1.40
2023-01-20T03:45:33.967Z,-1.49
2023-01-20T03:48:10.200Z,-1.54
2023-01-20T03:50:46.214Z,-1.65
2023-01-20T03:53:25.082Z,-1.69
2023-01-20T03:56:00.021Z,-1.77
2023-01-20T03:58:31.772Z,-1.79
2023-01-20T04:01:02.765Z,-1.79
2023-01-20T04:03:46.732Z,-1.77
2023-01-20T04:06:18.767Z,-1.88
2023-01-20T04:08:52.360Z,-1.75
2023-01-20T04:11:20.416Z,-1.94
2023-01-20T04:13:48.927Z,-2.05
2023-01-20T04:16:19.181Z,-1.83
2023-01-20T04:18:49.359Z,-1.89
2023-01-20T04:21:26.309Z,-1.83
2023-01-20T04:23:59.311Z,-1.94
2023-01-20T04:26:27.715Z,-1.87
2023-01-20T04:28:56.081Z,-1.98
2023-01-20T04:31:30.551Z,-1.85
2023-01-20T04:33:59.575Z,-1.75
2023-01-20T04:36:29.460Z,-1.71
2023-01-20T04:38:58.053Z,-1.78
2023-01-20T04:41:26.403Z,-1.74
2023-01-20T04:43:54.732Z,-1.83
2023-01-20T04:46:23.999Z,-1.74
2023-01-20T04:48:52.313Z,-1.72
2023-01-20T04:51:20.701Z,-1.78
2023-01-20T04:53:50.442Z,-1.71
2023-01-20T04:56:18.861Z,-1.68
2023-01-20T04:58:49.450Z,-1.73
2023-01-20T05:01:17.970Z,-1.67
2023-01-20T05:03:46.471Z,-1.70
2023-01-20T05:06:15.178Z,-1.77
2023-01-20T05:08:43.460Z,-1.74
2023-01-20T05:11:13.235Z,-1.69
2023-01-20T05:13:41.750Z,-1.72
2023-01-20T05:16:11.562Z,-2.00
2023-01-20T05:18:40.907Z,-1.78
2023-01-20T05:21:09.866Z,-1.94
2023-01-20T05:23:38.223Z,-1.76
2023-01-20T05:26:07.003Z,-1.84
2023-01-20T05:28:36.737Z,-1.72
2023-01-20T05:31:05.187Z,-1.80
2023-01-20T05:33:33.555Z,-1.71
2023-01-20T05:36:05.827Z,-1.63
2023-01-20T05:38:34.142Z,-2.02
2023-01-20T05:41:02.555Z,-1.92
2023-01-20T05:43:30.957Z,-1.93
2023-01-20T05:46:01.101Z,-1.92
2023-01-20T05:48:29.539Z,-1.96
2023-01-20T05:50:58.048Z,-2.03
2023-01-20T05:53:26.426Z,-2.01
2023-01-20T05:56:01.690Z,-1.94
2023-01-20T05:58:30.785Z,-2.11
2023-01-20T06:01:07.723Z,-1.86
2023-01-20T06:03:36.342Z,-1.84
2023-01-20T06:06:06.355Z,-1.97
2023-01-20T06:08:35.038Z,-1.92
2023-01-20T06:11:03.477Z,-2.20
2023-01-20T06:13:31.896Z,-1.90
2023-01-20T06:16:00.664Z,-1.88
2023-01-20T06:18:30.637Z,-1.87
2023-01-20T06:20:59.334Z,-1.98
2023-01-20T06:23:28.206Z,-1.93
2023-01-20T06:26:00.531Z,-1.98
2023-01-20T06:28:29.386Z,-2.04
2023-01-20T06:31:04.415Z,-2.36
2023-01-20T06:33:35.262Z,-2.10
2023-01-20T06:36:04.518Z,-2.31
2023-01-20T06:38:35.293Z,-2.18
2023-01-20T06:41:05.114Z,-2.24
2023-01-20T06:43:35.203Z,-2.33
2023-01-20T06:46:04.687Z,-2.44
2023-01-20T06:48:36.221Z,-2.44
2023-01-20T06:51:05.453Z,-2.50
2023-01-20T06:53:33.891Z,-2.52
2023-01-20T06:56:03.134Z,-2.58
2023-01-20T06:58:33.475Z,-2.53
2023-01-20T07:01:08.919Z,-2.53
2023-01-20T07:03:38.924Z,-2.57
2023-01-20T07:06:17.505Z,-2.60
2023-01-20T07:08:46.919Z,-2.63
2023-01-20T07:11:15.304Z,-3.18
2023-01-20T07:13:44.057Z,-2.62
2023-01-20T07:16:15.355Z,-2.66
2023-01-20T07:18:48.783Z,-3.10
2023-01-20T07:21:17.539Z,-3.04
2023-01-20T07:23:45.936Z,-2.96
2023-01-20T07:26:17.356Z,-3.12
2023-01-20T07:28:45.928Z,-2.97
2023-01-20T07:31:17.466Z,-3.05
2023-01-20T07:33:47.707Z,-2.94
2023-01-20T07:36:16.795Z,-2.86
2023-01-20T07:38:48.607Z,-2.81
2023-01-20T07:41:18.251Z,-2.84
2023-01-20T07:43:47.642Z,-2.74
2023-01-20T07:46:16.258Z,-2.72
2023-01-20T07:48:45.208Z,-2.72
2023-01-20T07:51:16.588Z,-2.71
2023-01-20T07:53:47.222Z,-2.68
2023-01-20T07:56:17.139Z,-2.65
2023-01-20T07:58:46.176Z,-2.76
2023-01-20T08:01:16.717Z,-2.53
2023-01-20T08:03:45.609Z,-2.47
2023-01-20T08:06:17.077Z,-2.38
2023-01-20T08:08:45.873Z,-2.53
2023-01-20T08:11:16.232Z,-2.25
2023-01-20T08:13:45.097Z,-2.19
2023-01-20T08:16:16.145Z,-2.16
2023-01-20T08:18:44.728Z,-2.09
2023-01-20T08:21:20.989Z,-2.06
2023-01-20T08:23:49.790Z,-2.03
2023-01-20T08:26:19.614Z,-1.96
2023-01-20T08:28:48.382Z,-1.90
2023-01-20T08:31:18.433Z,-1.87
2023-01-20T08:33:47.588Z,-1.92
2023-01-20T08:36:17.810Z,-1.77
2023-01-20T08:38:48.708Z,-1.68
2023-01-20T08:41:19.891Z,-1.64
2023-01-20T08:43:48.727Z,-1.89
2023-01-20T08:46:19.067Z,-1.65
2023-01-20T08:48:48.657Z,-1.62
2023-01-20T08:51:18.788Z,-1.56
2023-01-20T08:53:49.000Z,-1.61
2023-01-20T08:56:18.373Z,-1.52
2023-01-20T08:58:47.283Z,-1.36
2023-01-20T09:01:17.942Z,-1.51
2023-01-20T09:03:59.331Z,-1.29
2023-01-20T09:06:32.970Z,-1.26
2023-01-20T09:09:04.505Z,-1.22
2023-01-20T09:11:33.490Z,-1.20
2023-01-20T09:14:01.886Z,-1.21
2023-01-20T09:16:30.334Z,-1.41
2023-01-20T09:18:58.670Z,-1.24
2023-01-20T09:21:26.953Z,-1.19
2023-01-20T09:23:55.369Z,-1.13
2023-01-20T09:26:41.246Z,-1.05
2023-01-20T09:29:13.160Z,-0.98
2023-01-20T09:31:45.226Z,-0.90
2023-01-20T09:34:19.427Z,-0.85
2023-01-20T09:36:51.795Z,-0.94
2023-01-20T09:39:37.743Z,-0.97
2023-01-20T09:42:41.926Z,-0.98
2023-01-20T09:45:25.240Z,-0.97
2023-01-20T09:48:01.336Z,-0.87
2023-01-20T09:50:58.124Z,-0.85
2023-01-20T09:53:41.044Z,-0.85
2023-01-20T09:56:16.597Z,-1.21
2023-01-20T09:58:54.411Z,-0.71
2023-01-20T10:01:31.045Z,-0.68
2023-01-20T10:04:06.771Z,-0.61
2023-01-20T10:06:40.904Z,-0.54
2023-01-20T10:09:18.203Z,-0.48
2023-01-20T10:11:49.410Z,-0.45
2023-01-20T10:14:25.688Z,-0.43
2023-01-20T10:17:00.607Z,-0.42
2023-01-20T10:19:37.267Z,-0.40
2023-01-20T10:22:13.292Z,-0.51
2023-01-20T10:24:48.597Z,-0.50
2023-01-20T10:27:16.959Z,-0.51
2023-01-20T10:29:53.356Z,-1.01
2023-01-20T10:32:29.708Z,-0.89
2023-01-20T10:35:00.521Z,-0.56
2023-01-20T10:37:31.265Z,-0.72
2023-01-20T10:40:07.509Z,-0.61
2023-01-20T10:42:35.967Z,-0.55
2023-01-20T10:45:13.947Z,-0.57
2023-01-20T10:47:49.743Z,-0.60
2023-01-20T10:50:47.220Z,-0.66
2023-01-20T10:53:41.378Z,-0.77
2023-01-20T10:56:17.665Z,-0.96
2023-01-20T10:58:47.840Z,-0.97
2023-01-20T11:01:19.644Z,-0.89
2023-01-20T11:03:50.407Z,-0.85
2023-01-20T11:06:21.639Z,-0.90
2023-01-20T11:08:51.117Z,-0.92
2023-01-20T11:11:21.958Z,-0.99
2023-01-20T11:13:51.811Z,-0.99
2023-01-20T11:16:25.149Z,-0.88
2023-01-20T11:19:02.917Z,-0.93
2023-01-20T11:21:35.915Z,-1.02
2023-01-20T11:24:05.354Z,-0.80
2023-01-20T11:26:35.963Z,-0.73
2023-01-20T11:29:24.977Z,-0.61
2023-01-20T11:31:56.918Z,-0.43
2023-01-20T11:34:27.689Z,-0.35
2023-01-20T11:37:20.969Z,-0.25
2023-01-20T11:40:03.839Z,-0.30
2023-01-20T11:42:45.042Z,-0.22
2023-01-20T11:45:30.464Z,-0.19
2023-01-20T11:48:17.495Z,-0.13
2023-01-20T11:50:50.235Z,-0.28
2023-01-20T11:53:21.737Z,-0.15
2023-01-20T11:55:55.667Z,-0.35
2023-01-20T11:58:25.926Z,0.44
2023-01-20T12:01:02.429Z,0.61
2023-01-20T12:03:56.947Z,0.39
2023-01-20T12:06:27.933Z,0.67
2023-01-20T12:09:02.650Z,0.75
2023-01-20T12:11:33.892Z,0.91
2023-01-20T12:14:25.065Z,1.00
2023-01-20T12:17:08.509Z,0.99
2023-01-20T12:19:46.306Z,1.21
2023-01-20T12:22:19.541Z,1.29
2023-01-20T12:25:13.248Z,0.94
2023-01-20T12:27:51.599Z,1.06
2023-01-20T12:30:38.931Z,1.04
2023-01-20T12:33:18.284Z,0.88
2023-01-20T12:36:10.487Z,0.83
2023-01-20T12:38:51.413Z,0.64
2023-01-20T12:41:36.020Z,0.80
2023-01-20T12:44:15.042Z,0.44
2023-01-20T12:46:49.922Z,0.62
2023-01-20T12:49:38.132Z,0.67
2023-01-20T12:52:24.578Z,0.70
2023-01-20T12:55:23.347Z,0.72
2023-01-20T12:58:02.337Z,0.72
2023-01-20T13:00:49.217Z,0.74
2023-01-20T13:04:14.524Z,0.71
2023-01-20T13:07:11.688Z,0.75
2023-01-20T13:09:53.934Z,0.69
2023-01-20T13:12:38.896Z,0.72
2023-01-20T13:15:20.409Z,0.78
2023-01-20T13:18:03.682Z,0.79
2023-01-20T13:20:32.422Z,0.55
2023-01-20T13:23:05.689Z,0.75
2023-01-20T13:25:36.335Z,0.71
2023-01-20T13:28:05.368Z,0.81
2023-01-20T13:30:43.255Z,0.90
2023-01-20T13:33:34.401Z,0.99
2023-01-20T13:36:14.220Z,0.95
2023-01-20T13:38:43.131Z,0.96
2023-01-20T13:41:13.556Z,1.02
2023-01-20T13:43:50.337Z,1.01
2023-01-20T13:46:50.230Z,1.03
2023-01-20T13:49:28.926Z,1.03
2023-01-20T13:51:57.492Z,1.00
2023-01-20T13:54:46.371Z,1.02
2023-01-20T13:57:38.202Z,0.91
2023-01-20T14:00:24.152Z,0.79
2023-01-20T14:02:53.257Z,1.06
2023-01-20T14:05:24.808Z,1.07
2023-01-20T14:07:53.393Z,0.63
2023-01-20T14:10:21.891Z,1.02
2023-01-20T14:12:51.659Z,1.01
2023-01-20T14:15:37.651Z,1.01
2023-01-20T14:18:06.971Z,0.99
2023-01-20T14:20:37.515Z,0.84
2023-01-20T14:23:29.054Z,0.92
2023-01-20T14:26:02.978Z,0.80
2023-01-20T14:28:33.546Z,0.81
2023-01-20T14:31:16.980Z,0.76
2023-01-20T14:33:47.308Z,0.59
2023-01-20T14:36:20.483Z,0.69
2023-01-20T14:38:57.680Z,0.64
2023-01-20T14:41:46.216Z,0.64
2023-01-20T14:44:19.126Z,0.65
2023-01-20T14:46:49.166Z,0.68
2023-01-20T14:49:19.893Z,0.74
2023-01-20T14:51:50.427Z,0.75
2023-01-20T14:54:44.552Z,0.75
2023-01-20T14:57:33.896Z,0.72
2023-01-20T15:00:21.799Z,0.64
2023-01-20T15:05:40.483Z,0.61
2023-01-20T15:08:26.103Z,0.72
2023-01-20T15:11:24.515Z,0.66
2023-01-20T15:14:10.956Z,0.63
2023-01-20T15:16:49.991Z,0.63
2023-01-20T15:19:32.327Z,0.56
2023-01-20T15:22:19.658Z,0.61
2023-01-20T15:24:49.908Z,0.62
2023-01-20T15:27:25.874Z,0.64
2023-01-20T15:30:16.147Z,0.63
2023-01-20T15:32:46.517Z,0.64
2023-01-20T15:35:15.721Z,0.58
2023-01-20T15:37:45.709Z,0.55
2023-01-20T15:40:18.005Z,0.17
2023-01-20T15:42:47.016Z,0.50
2023-01-20T15:45:16.127Z,0.35
2023-01-20T15:47:47.322Z,0.37
2023-01-20T15:50:21.393Z,0.26
2023-01-20T15:52:50.229Z,-0.05
2023-01-20T15:55:20.495Z,0.24
2023-01-20T15:57:52.378Z,0.25
2023-01-20T16:00:23.090Z,0.26
2023-01-20T16:02:53.216Z,0.27
2023-01-20T16:05:22.160Z,0.22
2023-01-20T16:07:50.500Z,0.13
2023-01-20T16:10:20.002Z,0.12
2023-01-20T16:12:49.130Z,-0.21
2023-01-20T16:15:18.991Z,0.13
2023-01-20T16:17:47.930Z,0.10
2023-01-20T16:20:25.729Z,0.09
2023-01-20T16:22:54.316Z,0.03
2023-01-20T16:25:23.331Z,0.12
2023-01-20T16:27:51.834Z,0.09
2023-01-20T16:30:23.168Z,0.20
2023-01-20T16:32:52.328Z,0.20
2023-01-20T16:35:23.893Z,-0.10
2023-01-20T16:37:53.777Z,0.15
2023-01-20T16:40:24.685Z,0.16
2023-01-20T16:42:56.689Z,0.16
2023-01-20T16:45:28.424Z,0.19
2023-01-20T16:47:57.255Z,0.02
2023-01-20T16:50:28.435Z,0.09
2023-01-20T16:52:58.388Z,0.03
2023-01-20T16:55:26.838Z,0.10
2023-01-20T16:57:55.493Z,0.11
2023-01-20T17:00:24.180Z,0.11
2023-01-20T17:02:53.294Z,0.10
2023-01-20T17:05:25.714Z,0.04
2023-01-20T17:07:54.801Z,0.10
2023-01-20T17:10:25.961Z,0.12
2023-01-20T17:12:55.211Z,0.13
2023-01-20T17:15:24.476Z,-0.07
2023-01-20T17:17:56.711Z,0.10
2023-01-20T17:20:26.311Z,0.05
2023-01-20T17:22:55.800Z,0.05
2023-01-20T17:25:26.088Z,0.06
2023-01-20T17:27:54.419Z,0.00
2023-01-20T17:30:25.306Z,-0.05
2023-01-20T17:32:54.511Z,-0.09
2023-01-20T17:35:22.798Z,-0.14
2023-01-20T17:37:51.187Z,-0.15
2023-01-20T17:40:19.681Z,-0.13
2023-01-20T17:42:49.481Z,-0.10
2023-01-20T17:45:18.244Z,-0.06
2023-01-20T17:47:46.618Z,-0.08
2023-01-20T17:50:15.528Z,-0.13
2023-01-20T17:52:44.040Z,-0.26
2023-01-20T17:55:12.522Z,-0.20
2023-01-20T17:57:40.874Z,-0.25
2023-01-20T18:00:12.899Z,-0.30
2023-01-20T18:02:41.407Z,-0.33
2023-01-20T18:05:18.742Z,-0.32
2023-01-20T18:07:47.138Z,-0.83
2023-01-20T18:10:15.722Z,-0.37
2023-01-20T18:12:44.327Z,-0.97
2023-01-20T18:15:14.042Z,-0.33
2023-01-20T18:17:43.636Z,-0.31
2023-01-20T18:20:15.330Z,-0.33
2023-01-20T18:22:48.798Z,-0.27
2023-01-20T18:25:17.275Z,-0.25
2023-01-20T18:27:45.801Z,-0.15
2023-01-20T18:30:16.642Z,-0.25
2023-01-20T18:32:45.151Z,-0.24
2023-01-20T18:35:13.893Z,-0.26
2023-01-20T18:37:42.869Z,-0.28
2023-01-20T18:40:12.614Z,-0.29
2023-01-20T18:42:42.884Z,-0.28
2023-01-20T18:45:11.888Z,-0.25
2023-01-20T18:47:42.548Z,-0.21
2023-01-20T18:50:12.409Z,-0.34
2023-01-20T18:52:40.955Z,-0.36
2023-01-20T18:55:10.833Z,-0.61
2023-01-20T18:57:39.308Z,-0.53
2023-01-20T19:00:09.186Z,-0.67
2023-01-20T19:02:37.702Z,-0.53
2023-01-20T19:05:09.234Z,-0.62
2023-01-20T19:07:37.607Z,-0.41
2023-01-20T19:10:07.445Z,-0.55
2023-01-20T19:12:36.087Z,-0.75
2023-01-20T19:15:04.714Z,-0.56
2023-01-20T19:17:33.450Z,-0.45
2023-01-20T19:20:01.890Z,-0.47
2023-01-20T19:22:32.083Z,-0.48
2023-01-20T19:25:00.628Z,-0.64
2023-01-20T19:27:29.018Z,-0.52
2023-01-20T19:29:58.514Z,-0.56
2023-01-20T19:32:27.298Z,-0.72
2023-01-20T19:34:55.904Z,-0.64
2023-01-20T19:37:24.438Z,-0.63
2023-01-20T19:39:54.663Z,-0.64
2023-01-20T19:42:25.832Z,-0.61
2023-01-20T19:44:55.270Z,-0.57
2023-01-20T19:47:24.672Z,-0.68
2023-01-20T19:49:54.170Z,-0.64
2023-01-20T19:52:23.931Z,-0.57
2023-01-20T19:54:55.330Z,-0.53
2023-01-20T19:57:25.172Z,-0.52
2023-01-20T19:59:54.489Z,-0.99
2023-01-20T20:02:24.804Z,-0.66
2023-01-20T20:04:54.670Z,-1.13
2023-01-20T20:07:23.636Z,-0.71
2023-01-20T20:09:54.753Z,-0.60
2023-01-20T20:12:24.395Z,-0.57
2023-01-20T20:14:55.534Z,-0.62
2023-01-20T20:17:26.077Z,-0.80
2023-01-20T20:19:54.473Z,-0.80
2023-01-20T20:22:23.851Z,-0.78
2023-01-20T20:24:54.526Z,-0.80
2023-01-20T20:27:23.097Z,-0.99
2023-01-20T20:29:51.478Z,-1.00
2023-01-20T20:32:21.076Z,-0.90
2023-01-20T20:34:49.686Z,-1.00
2023-01-20T20:37:18.045Z,-0.89
2023-01-20T20:39:46.838Z,-0.86
2023-01-20T20:42:16.576Z,-0.82
2023-01-20T20:44:45.052Z,-0.72
2023-01-20T20:47:13.442Z,-0.72
2023-01-20T20:49:42.839Z,-0.73
2023-01-20T20:52:12.724Z,-0.73
2023-01-20T20:54:42.124Z,-0.77
2023-01-20T20:57:12.032Z,-0.97
2023-01-20T20:59:57.754Z,-0.84
2023-01-20T21:02:27.269Z,-0.80
2023-01-20T21:04:55.561Z,-0.83
2023-01-20T21:07:23.980Z,-0.93
2023-01-20T21:09:53.157Z,-0.90
2023-01-20T21:12:21.666Z,-1.08
2023-01-20T21:14:52.080Z,-0.80
2023-01-20T21:17:20.470Z,-0.85
2023-01-20T21:19:52.324Z,-1.48
2023-01-20T21:22:21.565Z,-0.83
2023-01-20T21:24:50.273Z,-0.88
2023-01-20T21:27:19.308Z,-0.89
2023-01-20T21:29:47.742Z,-0.85
2023-01-20T21:32:19.062Z,-0.83
2023-01-20T21:34:48.023Z,-0.85
2023-01-20T21:37:22.552Z,-1.03
2023-01-20T21:39:52.078Z,-1.13
2023-01-20T21:42:22.520Z,-1.09
2023-01-20T21:44:51.251Z,-1.05
2023-01-20T21:47:21.214Z,-1.03
2023-01-20T21:50:07.002Z,-0.92
2023-01-20T21:52:46.089Z,-1.01
2023-01-20T21:55:19.689Z,-1.02
2023-01-20T21:57:50.998Z,-0.96
2023-01-20T22:00:21.723Z,-0.91
2023-01-20T22:02:53.742Z,-1.13
2023-01-20T22:05:23.541Z,-0.78
2023-01-20T22:07:53.808Z,-0.91
2023-01-20T22:10:22.132Z,-1.49
2023-01-20T22:12:50.474Z,-1.03
2023-01-20T22:15:18.787Z,-1.14
2023-01-20T22:17:47.662Z,-1.11
2023-01-20T22:20:18.289Z,-1.12
2023-01-20T22:22:46.883Z,-1.14
2023-01-20T22:25:15.262Z,-1.14
2023-01-20T22:27:43.617Z,-1.14
2023-01-20T22:30:13.014Z,-1.22
2023-01-20T22:32:41.635Z,-1.14
2023-01-20T22:35:10.404Z,-1.12
2023-01-20T22:37:40.079Z,-1.24
2023-01-20T22:40:09.136Z,-1.13
2023-01-20T22:42:37.669Z,-1.13
2023-01-20T22:45:06.629Z,-1.12
2023-01-20T22:47:35.238Z,-1.49
2023-01-20T22:50:03.537Z,-1.09
2023-01-20T22:52:31.906Z,-1.11
2023-01-20T22:55:01.659Z,-1.11
2023-01-20T22:57:31.810Z,-1.12
2023-01-20T23:00:00.467Z,-1.12
2023-01-20T23:02:28.806Z,-1.14
2023-01-20T23:04:57.335Z,-1.22
2023-01-20T23:07:25.820Z,-1.42
2023-01-20T23:09:54.091Z,-1.27
2023-01-20T23:12:24.058Z,-1.30
2023-01-20T23:15:01.182Z,-1.43
2023-01-20T23:17:30.931Z,-1.42
2023-01-20T23:19:59.800Z,-1.40
2023-01-20T23:22:29.839Z,-1.43
2023-01-20T23:24:58.187Z,-1.40
2023-01-20T23:27:27.929Z,-1.39
2023-01-20T23:29:56.313Z,-1.38
2023-01-20T23:32:24.649Z,-1.33
2023-01-20T23:34:52.892Z,-1.35
2023-01-20T23:37:21.234Z,-1.35
2023-01-20T23:39:52.427Z,-1.36
2023-01-20T23:42:21.200Z,-1.45
2023-01-20T23:44:50.974Z,-1.49
2023-01-20T23:47:19.855Z,-1.47
2023-01-20T23:49:48.209Z,-1.47
2023-01-20T23:52:16.645Z,-1.46
2023-01-20T23:54:44.984Z,-1.65
2023-01-20T23:57:13.332Z,-1.53
2023-01-20T23:59:41.623Z,-1.52
